AKJ1738 VABB-VOBL
Flight info
| Callsign | AKJ1738 |
|---|---|
| Flight time | N/A |
| Altitude | 35000 |
| Route | VEVAK2A EPKOS Q9 RIKBU RIKBU7F |
| Aircraft | B38M/M-SDE1FGHILORVWXY/HB1 |
Departure
| Time | 2026-05-04 12:41 |
|---|---|
| Airport | Chhatrapati Shivaji Maharaj International Airport (VABB) |
Arrival
| Time | N/A |
|---|---|
| Airport | Kempegowda International Airport Bengaluru (VOBL) |
| Time | Latitude | Longitude | Altitude | Speed | Heading |
|---|---|---|---|---|---|
| 2026-05-04 12:12 | 19.09155 | 72.85563 | 52 ft | 0 kts | 0° |
| 2026-05-04 12:30 | 19.09135 | 72.85562 | 46 ft | 4 kts | 8° |
| 2026-05-04 12:30 | 19.09110 | 72.85554 | 47 ft | 4 kts | 31° |
| 2026-05-04 12:31 | 19.09094 | 72.85536 | 49 ft | 4 kts | 79° |
| 2026-05-04 12:31 | 19.09093 | 72.85525 | 46 ft | 1 kts | 89° |
| 2026-05-04 12:31 | 19.09093 | 72.85524 | 47 ft | 0 kts | 89° |
| 2026-05-04 12:34 | 19.09093 | 72.85527 | 50 ft | 1 kts | 89° |
| 2026-05-04 12:34 | 19.09093 | 72.85551 | 48 ft | 5 kts | 89° |
| 2026-05-04 12:35 | 19.09080 | 72.85599 | 49 ft | 9 kts | 146° |
| 2026-05-04 12:35 | 19.09028 | 72.85636 | 51 ft | 12 kts | 99° |
| 2026-05-04 12:35 | 19.09028 | 72.85740 | 51 ft | 17 kts | 89° |
| 2026-05-04 12:35 | 19.09030 | 72.85879 | 51 ft | 21 kts | 88° |
| 2026-05-04 12:36 | 19.09033 | 72.86053 | 51 ft | 26 kts | 89° |
| 2026-05-04 12:36 | 19.09035 | 72.86246 | 51 ft | 25 kts | 89° |
| 2026-05-04 12:36 | 19.09038 | 72.86446 | 51 ft | 29 kts | 89° |
| 2026-05-04 12:36 | 19.09041 | 72.86654 | 50 ft | 25 kts | 89° |
| 2026-05-04 12:37 | 19.09044 | 72.86854 | 52 ft | 29 kts | 89° |
| 2026-05-04 12:37 | 19.09047 | 72.87054 | 52 ft | 24 kts | 89° |
| 2026-05-04 12:37 | 19.09049 | 72.87239 | 52 ft | 26 kts | 89° |
| 2026-05-04 12:37 | 19.09052 | 72.87427 | 52 ft | 23 kts | 89° |
| 2026-05-04 12:38 | 19.09054 | 72.87603 | 51 ft | 25 kts | 89° |
| 2026-05-04 12:38 | 19.09057 | 72.87790 | 51 ft | 26 kts | 89° |
| 2026-05-04 12:38 | 19.09059 | 72.87968 | 51 ft | 14 kts | 89° |
| 2026-05-04 12:38 | 19.09036 | 72.88047 | 51 ft | 12 kts | 152° |
| 2026-05-04 12:39 | 19.09012 | 72.88052 | 50 ft | 0 kts | 179° |
| 2026-05-04 12:40 | 19.09009 | 72.88052 | 50 ft | 2 kts | 179° |
| 2026-05-04 12:40 | 19.08977 | 72.88052 | 50 ft | 7 kts | 179° |
| 2026-05-04 12:40 | 19.08908 | 72.88041 | 49 ft | 13 kts | 217° |
| 2026-05-04 12:40 | 19.08887 | 72.87884 | 50 ft | 52 kts | 269° |
| 2026-05-04 12:41 | 19.08876 | 72.87200 | 53 ft | 131 kts | 269° |
| 2026-05-04 12:41 | 19.08856 | 72.86015 | 308 ft | 173 kts | 269° |
| 2026-05-04 12:41 | 19.08823 | 72.84652 | 951 ft | 197 kts | 268° |
| 2026-05-04 12:41 | 19.08778 | 72.83195 | 1905 ft | 203 kts | 268° |
| 2026-05-04 12:42 | 19.08724 | 72.81746 | 3163 ft | 186 kts | 269° |
| 2026-05-04 12:42 | 19.08728 | 72.80305 | 3720 ft | 213 kts | 270° |
| 2026-05-04 12:42 | 19.08725 | 72.78655 | 4306 ft | 235 kts | 269° |
| 2026-05-04 12:42 | 19.08711 | 72.76875 | 5125 ft | 244 kts | 269° |
| 2026-05-04 12:43 | 19.08681 | 72.75083 | 6157 ft | 246 kts | 266° |
| 2026-05-04 12:43 | 19.08205 | 72.73335 | 7073 ft | 250 kts | 239° |
| 2026-05-04 12:43 | 19.07020 | 72.71949 | 7862 ft | 264 kts | 214° |
| 2026-05-04 12:43 | 19.05282 | 72.71181 | 8488 ft | 282 kts | 189° |
| 2026-05-04 12:44 | 19.03321 | 72.71247 | 8807 ft | 284 kts | 164° |
| 2026-05-04 12:44 | 19.01600 | 72.72230 | 8941 ft | 284 kts | 139° |
| 2026-05-04 12:44 | 19.00047 | 72.73525 | 8963 ft | 284 kts | 155° |
| 2026-05-04 12:44 | 18.98143 | 72.73918 | 8981 ft | 282 kts | 185° |
| 2026-05-04 12:45 | 18.96186 | 72.73686 | 8995 ft | 284 kts | 184° |
| 2026-05-04 12:45 | 18.94193 | 72.73615 | 9226 ft | 288 kts | 181° |
| 2026-05-04 12:45 | 18.92217 | 72.73616 | 10265 ft | 285 kts | 180° |
| 2026-05-04 12:45 | 18.90177 | 72.73664 | 10858 ft | 303 kts | 178° |
| 2026-05-04 12:46 | 18.88002 | 72.73750 | 11334 ft | 321 kts | 178° |
| 2026-05-04 12:46 | 18.85724 | 72.73857 | 11945 ft | 334 kts | 178° |
| 2026-05-04 12:46 | 18.83393 | 72.73977 | 12797 ft | 336 kts | 177° |
| 2026-05-04 12:46 | 18.81040 | 72.74104 | 13582 ft | 342 kts | 177° |
| 2026-05-04 12:47 | 18.78640 | 72.74238 | 13891 ft | 346 kts | 176° |
| 2026-05-04 12:47 | 18.76304 | 72.74775 | 13970 ft | 345 kts | 161° |
| 2026-05-04 12:47 | 18.74022 | 72.75579 | 13995 ft | 346 kts | 162° |
| 2026-05-04 12:47 | 18.71723 | 72.76374 | 14462 ft | 348 kts | 162° |
| 2026-05-04 12:48 | 18.69423 | 72.77172 | 15271 ft | 350 kts | 162° |
| 2026-05-04 12:48 | 18.67094 | 72.77981 | 15964 ft | 354 kts | 162° |
| 2026-05-04 12:48 | 18.64742 | 72.78798 | 16666 ft | 358 kts | 162° |
| 2026-05-04 12:48 | 18.62363 | 72.79624 | 17332 ft | 362 kts | 162° |
| 2026-05-04 12:49 | 18.59963 | 72.80458 | 17973 ft | 365 kts | 162° |
| 2026-05-04 12:49 | 18.57535 | 72.81301 | 18606 ft | 369 kts | 162° |
| 2026-05-04 12:49 | 18.55087 | 72.82150 | 19214 ft | 372 kts | 162° |
| 2026-05-04 12:49 | 18.52616 | 72.83008 | 19806 ft | 376 kts | 162° |
| 2026-05-04 12:50 | 18.50123 | 72.83872 | 20371 ft | 379 kts | 162° |
| 2026-05-04 12:50 | 18.47612 | 72.84743 | 20936 ft | 382 kts | 162° |
| 2026-05-04 12:50 | 18.45072 | 72.85624 | 21478 ft | 385 kts | 162° |
| 2026-05-04 12:50 | 18.43417 | 72.86197 | 21826 ft | 387 kts | 162° |
| 2026-05-04 12:51 | 18.40844 | 72.87088 | 22354 ft | 391 kts | 162° |
| 2026-05-04 12:51 | 18.38256 | 72.87985 | 22861 ft | 393 kts | 162° |
| 2026-05-04 12:51 | 18.34794 | 72.89184 | 23507 ft | 398 kts | 162° |
| 2026-05-04 12:51 | 18.32154 | 72.90097 | 23987 ft | 400 kts | 162° |
| 2026-05-04 12:52 | 18.30363 | 72.90717 | 24300 ft | 402 kts | 162° |
| 2026-05-04 12:52 | 18.27693 | 72.91641 | 24758 ft | 405 kts | 162° |
| 2026-05-04 12:52 | 18.25004 | 72.92570 | 25195 ft | 408 kts | 162° |
| 2026-05-04 12:52 | 18.22299 | 72.93506 | 25627 ft | 411 kts | 162° |
| 2026-05-04 12:53 | 18.19575 | 72.94447 | 26041 ft | 413 kts | 162° |
| 2026-05-04 12:53 | 18.16835 | 72.95393 | 26452 ft | 416 kts | 162° |
| 2026-05-04 12:53 | 18.14074 | 72.96347 | 26849 ft | 419 kts | 162° |
| 2026-05-04 12:53 | 18.11298 | 72.97306 | 27236 ft | 421 kts | 162° |
| 2026-05-04 12:54 | 18.08632 | 72.98583 | 27600 ft | 424 kts | 146° |
| 2026-05-04 12:54 | 18.06356 | 73.00547 | 27979 ft | 425 kts | 139° |
| 2026-05-04 12:54 | 18.04126 | 73.02617 | 28285 ft | 429 kts | 139° |
| 2026-05-04 12:54 | 18.01896 | 73.04710 | 28653 ft | 431 kts | 138° |
| 2026-05-04 12:55 | 17.99659 | 73.06831 | 28971 ft | 434 kts | 138° |
| 2026-05-04 12:55 | 17.97416 | 73.08967 | 29329 ft | 436 kts | 138° |
| 2026-05-04 12:55 | 17.95166 | 73.11113 | 29646 ft | 438 kts | 138° |
| 2026-05-04 12:55 | 17.92903 | 73.13273 | 29961 ft | 441 kts | 138° |
| 2026-05-04 12:56 | 17.90658 | 73.15414 | 30275 ft | 443 kts | 138° |
| 2026-05-04 12:56 | 17.88341 | 73.17623 | 30574 ft | 445 kts | 138° |
| 2026-05-04 12:56 | 17.86074 | 73.19785 | 30872 ft | 447 kts | 138° |
| 2026-05-04 12:56 | 17.83763 | 73.21986 | 31171 ft | 449 kts | 138° |
| 2026-05-04 12:57 | 17.81446 | 73.24194 | 31471 ft | 451 kts | 138° |
| 2026-05-04 12:57 | 17.79117 | 73.26412 | 31749 ft | 453 kts | 138° |
| 2026-05-04 12:57 | 17.76775 | 73.28641 | 32026 ft | 455 kts | 138° |
| 2026-05-04 12:57 | 17.74424 | 73.30878 | 32303 ft | 457 kts | 138° |
| 2026-05-04 12:58 | 17.72064 | 73.33122 | 32621 ft | 458 kts | 138° |
| 2026-05-04 12:58 | 17.69705 | 73.35365 | 33002 ft | 457 kts | 138° |
| 2026-05-04 12:58 | 17.67357 | 73.37597 | 33385 ft | 456 kts | 138° |
| 2026-05-04 12:58 | 17.65009 | 73.39828 | 33737 ft | 455 kts | 138° |
| 2026-05-04 12:59 | 17.62666 | 73.42053 | 34068 ft | 455 kts | 138° |
| 2026-05-04 12:59 | 17.60322 | 73.44279 | 34377 ft | 455 kts | 138° |
| 2026-05-04 12:59 | 17.57978 | 73.46503 | 34730 ft | 453 kts | 138° |
| 2026-05-04 12:59 | 17.55643 | 73.48719 | 34985 ft | 454 kts | 138° |
| 2026-05-04 13:00 | 17.53299 | 73.50942 | 35016 ft | 453 kts | 138° |
| 2026-05-04 13:00 | 17.48646 | 73.55352 | 34999 ft | 451 kts | 138° |
| 2026-05-04 13:01 | 17.43990 | 73.59762 | 35005 ft | 451 kts | 138° |
| 2026-05-04 13:01 | 17.39321 | 73.64181 | 35002 ft | 455 kts | 138° |
| 2026-05-04 13:02 | 17.34616 | 73.68631 | 35003 ft | 455 kts | 138° |
| 2026-05-04 13:02 | 17.29910 | 73.73079 | 35004 ft | 456 kts | 138° |
| 2026-05-04 13:03 | 17.25192 | 73.77534 | 35001 ft | 457 kts | 138° |
| 2026-05-04 13:03 | 17.20472 | 73.81989 | 35000 ft | 457 kts | 138° |
| 2026-05-04 13:04 | 17.15750 | 73.86443 | 34997 ft | 456 kts | 138° |
| 2026-05-04 13:04 | 17.11041 | 73.90880 | 35002 ft | 455 kts | 138° |
| 2026-05-04 13:05 | 17.06343 | 73.95305 | 35005 ft | 455 kts | 138° |
| 2026-05-04 13:05 | 17.01645 | 73.99726 | 35003 ft | 454 kts | 138° |
| 2026-05-04 13:06 | 16.96943 | 74.04148 | 35000 ft | 454 kts | 138° |
| 2026-05-04 13:06 | 16.92243 | 74.08566 | 35005 ft | 455 kts | 138° |
| 2026-05-04 13:07 | 16.87700 | 74.13138 | 35003 ft | 453 kts | 128° |
| 2026-05-04 13:07 | 16.83797 | 74.18326 | 35002 ft | 455 kts | 128° |
| 2026-05-04 13:08 | 16.79872 | 74.23506 | 34996 ft | 455 kts | 128° |
| 2026-05-04 13:08 | 16.75945 | 74.28691 | 35000 ft | 455 kts | 128° |
| 2026-05-04 13:09 | 16.72022 | 74.33865 | 35000 ft | 454 kts | 128° |